sensor_id;sensor_type;location;lat;lon;timestamp;P1;durP1;ratioP1;P2;durP2;ratioP2
14903;SDS011;7543;53.148;8.234;2022-11-15T00:02:26;14.03;;;7.47;;
14903;SDS011;7543;53.148;8.234;2022-11-15T00:05:13;13.00;;;6.53;;
14903;SDS011;7543;53.148;8.234;2022-11-15T00:08:00;14.97;;;7.80;;
14903;SDS011;7543;53.148;8.234;2022-11-15T00:10:54;14.03;;;6.93;;
14903;SDS011;7543;53.148;8.234;2022-11-15T00:13:42;14.50;;;7.77;;
14903;SDS011;7543;53.148;8.234;2022-11-15T00:16:28;15.13;;;7.07;;
14903;SDS011;7543;53.148;8.234;2022-11-15T00:19:15;15.63;;;7.77;;
14903;SDS011;7543;53.148;8.234;2022-11-15T00:22:01;16.47;;;7.00;;
14903;SDS011;7543;53.148;8.234;2022-11-15T00:24:48;15.27;;;6.67;;
14903;SDS011;7543;53.148;8.234;2022-11-15T00:27:36;13.63;;;7.20;;
14903;SDS011;7543;53.148;8.234;2022-11-15T00:30:22;11.03;;;6.67;;
14903;SDS011;7543;53.148;8.234;2022-11-15T00:33:09;12.30;;;6.93;;
14903;SDS011;7543;53.148;8.234;2022-11-15T00:35:59;14.40;;;7.07;;
14903;SDS011;7543;53.148;8.234;2022-11-15T00:38:49;13.93;;;7.13;;
14903;SDS011;7543;53.148;8.234;2022-11-15T00:41:36;19.50;;;7.60;;
14903;SDS011;7543;53.148;8.234;2022-11-15T00:44:24;15.20;;;6.50;;
14903;SDS011;7543;53.148;8.234;2022-11-15T00:47:11;17.73;;;7.67;;
14903;SDS011;7543;53.148;8.234;2022-11-15T00:49:57;12.93;;;6.70;;
14903;SDS011;7543;53.148;8.234;2022-11-15T00:52:44;11.57;;;6.40;;
14903;SDS011;7543;53.148;8.234;2022-11-15T00:55:31;13.57;;;6.23;;
14903;SDS011;7543;53.148;8.234;2022-11-15T00:58:18;13.00;;;7.17;;
14903;SDS011;7543;53.148;8.234;2022-11-15T01:01:06;16.77;;;7.07;;
14903;SDS011;7543;53.148;8.234;2022-11-15T01:03:54;16.97;;;7.80;;
14903;SDS011;7543;53.148;8.234;2022-11-15T01:06:41;12.47;;;5.93;;
14903;SDS011;7543;53.148;8.234;2022-11-15T01:09:28;12.63;;;7.00;;
14903;SDS011;7543;53.148;8.234;2022-11-15T01:12:14;12.07;;;7.23;;
14903;SDS011;7543;53.148;8.234;2022-11-15T01:15:01;14.23;;;7.17;;
14903;SDS011;7543;53.148;8.234;2022-11-15T01:17:49;14.03;;;6.40;;
14903;SDS011;7543;53.148;8.234;2022-11-15T01:20:38;16.00;;;6.90;;
14903;SDS011;7543;53.148;8.234;2022-11-15T01:23:26;13.33;;;6.93;;
14903;SDS011;7543;53.148;8.234;2022-11-15T01:26:13;15.50;;;7.53;;
14903;SDS011;7543;53.148;8.234;2022-11-15T01:29:00;13.70;;;6.93;;
14903;SDS011;7543;53.148;8.234;2022-11-15T01:31:47;13.43;;;6.90;;
14903;SDS011;7543;53.148;8.234;2022-11-15T01:34:35;15.33;;;7.13;;
14903;SDS011;7543;53.148;8.234;2022-11-15T01:37:22;15.53;;;7.90;;
14903;SDS011;7543;53.148;8.234;2022-11-15T01:40:09;14.57;;;7.63;;
14903;SDS011;7543;53.148;8.234;2022-11-15T01:42:56;13.70;;;7.53;;
14903;SDS011;7543;53.148;8.234;2022-11-15T01:45:43;16.10;;;8.30;;
14903;SDS011;7543;53.148;8.234;2022-11-15T01:48:32;12.77;;;7.40;;
14903;SDS011;7543;53.148;8.234;2022-11-15T01:51:21;18.40;;;7.77;;
14903;SDS011;7543;53.148;8.234;2022-11-15T01:54:10;11.67;;;6.90;;
14903;SDS011;7543;53.148;8.234;2022-11-15T01:57:00;18.20;;;7.70;;
14903;SDS011;7543;53.148;8.234;2022-11-15T01:59:48;23.07;;;8.00;;
14903;SDS011;7543;53.148;8.234;2022-11-15T02:02:35;11.80;;;6.67;;
14903;SDS011;7543;53.148;8.234;2022-11-15T02:05:22;16.90;;;7.03;;
14903;SDS011;7543;53.148;8.234;2022-11-15T02:08:11;13.30;;;7.40;;
14903;SDS011;7543;53.148;8.234;2022-11-15T02:11:07;12.63;;;6.50;;
14903;SDS011;7543;53.148;8.234;2022-11-15T02:13:54;15.63;;;7.33;;
14903;SDS011;7543;53.148;8.234;2022-11-15T02:16:42;13.00;;;6.57;;
14903;SDS011;7543;53.148;8.234;2022-11-15T02:19:44;13.50;;;6.97;;
14903;SDS011;7543;53.148;8.234;2022-11-15T02:22:45;12.40;;;7.10;;
14903;SDS011;7543;53.148;8.234;2022-11-15T02:25:48;14.70;;;7.03;;
14903;SDS011;7543;53.148;8.234;2022-11-15T02:28:44;14.40;;;7.13;;
14903;SDS011;7543;53.148;8.234;2022-11-15T02:31:38;13.80;;;7.13;;
14903;SDS011;7543;53.148;8.234;2022-11-15T02:34:28;12.63;;;6.57;;
14903;SDS011;7543;53.148;8.234;2022-11-15T02:37:21;18.10;;;8.10;;
14903;SDS011;7543;53.148;8.234;2022-11-15T02:40:13;15.57;;;7.50;;
14903;SDS011;7543;53.148;8.234;2022-11-15T02:43:04;14.60;;;7.10;;
14903;SDS011;7543;53.148;8.234;2022-11-15T02:46:13;16.37;;;6.40;;
14903;SDS011;7543;53.148;8.234;2022-11-15T02:49:03;16.33;;;7.20;;
14903;SDS011;7543;53.148;8.234;2022-11-15T02:51:51;14.00;;;6.83;;
14903;SDS011;7543;53.148;8.234;2022-11-15T02:54:38;13.93;;;6.70;;
14903;SDS011;7543;53.148;8.234;2022-11-15T02:57:27;13.80;;;6.97;;
14903;SDS011;7543;53.148;8.234;2022-11-15T03:00:21;15.67;;;7.43;;
14903;SDS011;7543;53.148;8.234;2022-11-15T03:03:18;12.90;;;6.67;;
14903;SDS011;7543;53.148;8.234;2022-11-15T03:06:18;14.77;;;7.33;;
14903;SDS011;7543;53.148;8.234;2022-11-15T03:09:09;15.37;;;6.30;;
14903;SDS011;7543;53.148;8.234;2022-11-15T03:11:59;13.50;;;7.07;;
14903;SDS011;7543;53.148;8.234;2022-11-15T03:14:54;13.20;;;6.70;;
14903;SDS011;7543;53.148;8.234;2022-11-15T03:17:45;14.33;;;7.53;;
14903;SDS011;7543;53.148;8.234;2022-11-15T03:20:35;12.70;;;5.83;;
14903;SDS011;7543;53.148;8.234;2022-11-15T03:23:24;12.57;;;7.63;;
14903;SDS011;7543;53.148;8.234;2022-11-15T03:26:11;17.37;;;7.63;;
14903;SDS011;7543;53.148;8.234;2022-11-15T03:29:00;12.83;;;6.60;;
14903;SDS011;7543;53.148;8.234;2022-11-15T03:31:51;12.73;;;6.43;;
14903;SDS011;7543;53.148;8.234;2022-11-15T03:34:41;16.70;;;7.20;;
14903;SDS011;7543;53.148;8.234;2022-11-15T03:37:31;14.13;;;6.87;;
14903;SDS011;7543;53.148;8.234;2022-11-15T03:40:23;16.57;;;7.23;;
14903;SDS011;7543;53.148;8.234;2022-11-15T03:43:15;13.63;;;6.17;;
14903;SDS011;7543;53.148;8.234;2022-11-15T03:46:07;11.83;;;6.60;;
14903;SDS011;7543;53.148;8.234;2022-11-15T03:49:00;13.57;;;6.50;;
14903;SDS011;7543;53.148;8.234;2022-11-15T03:51:51;13.90;;;6.67;;
14903;SDS011;7543;53.148;8.234;2022-11-15T03:54:47;11.07;;;6.17;;
14903;SDS011;7543;53.148;8.234;2022-11-15T03:57:35;12.93;;;6.87;;
14903;SDS011;7543;53.148;8.234;2022-11-15T04:00:22;11.70;;;6.13;;
14903;SDS011;7543;53.148;8.234;2022-11-15T04:03:08;13.87;;;6.53;;
14903;SDS011;7543;53.148;8.234;2022-11-15T04:05:55;12.97;;;6.13;;
14903;SDS011;7543;53.148;8.234;2022-11-15T04:08:42;13.20;;;6.33;;
14903;SDS011;7543;53.148;8.234;2022-11-15T04:11:29;12.03;;;6.33;;
14903;SDS011;7543;53.148;8.234;2022-11-15T04:14:17;15.03;;;6.73;;
14903;SDS011;7543;53.148;8.234;2022-11-15T04:17:04;14.17;;;6.53;;
14903;SDS011;7543;53.148;8.234;2022-11-15T04:19:50;12.23;;;6.23;;
14903;SDS011;7543;53.148;8.234;2022-11-15T04:22:55;13.03;;;6.50;;
14903;SDS011;7543;53.148;8.234;2022-11-15T04:26:01;12.57;;;6.70;;
14903;SDS011;7543;53.148;8.234;2022-11-15T04:28:49;17.77;;;6.70;;
14903;SDS011;7543;53.148;8.234;2022-11-15T04:31:55;11.80;;;6.60;;
14903;SDS011;7543;53.148;8.234;2022-11-15T04:34:42;12.40;;;5.67;;
14903;SDS011;7543;53.148;8.234;2022-11-15T04:37:28;14.50;;;6.37;;
14903;SDS011;7543;53.148;8.234;2022-11-15T04:40:15;12.30;;;6.27;;
14903;SDS011;7543;53.148;8.234;2022-11-15T04:43:02;10.53;;;6.00;;
14903;SDS011;7543;53.148;8.234;2022-11-15T04:45:49;11.37;;;5.73;;
14903;SDS011;7543;53.148;8.234;2022-11-15T04:48:37;11.47;;;5.87;;
14903;SDS011;7543;53.148;8.234;2022-11-15T04:51:24;15.30;;;6.00;;
14903;SDS011;7543;53.148;8.234;2022-11-15T04:54:10;9.77;;;5.60;;
14903;SDS011;7543;53.148;8.234;2022-11-15T04:56:57;15.33;;;6.37;;
14903;SDS011;7543;53.148;8.234;2022-11-15T04:59:43;12.30;;;5.60;;
14903;SDS011;7543;53.148;8.234;2022-11-15T05:02:30;11.60;;;6.10;;
14903;SDS011;7543;53.148;8.234;2022-11-15T05:05:33;10.67;;;5.80;;
14903;SDS011;7543;53.148;8.234;2022-11-15T05:08:20;10.27;;;5.03;;
14903;SDS011;7543;53.148;8.234;2022-11-15T05:11:06;8.60;;;4.77;;
14903;SDS011;7543;53.148;8.234;2022-11-15T05:13:53;9.33;;;5.50;;
14903;SDS011;7543;53.148;8.234;2022-11-15T05:16:40;8.87;;;5.63;;
14903;SDS011;7543;53.148;8.234;2022-11-15T05:19:26;10.00;;;5.33;;
14903;SDS011;7543;53.148;8.234;2022-11-15T05:22:14;11.07;;;4.70;;
14903;SDS011;7543;53.148;8.234;2022-11-15T05:25:01;9.03;;;5.30;;
14903;SDS011;7543;53.148;8.234;2022-11-15T05:27:48;11.30;;;5.43;;
14903;SDS011;7543;53.148;8.234;2022-11-15T05:30:35;9.20;;;4.67;;
14903;SDS011;7543;53.148;8.234;2022-11-15T05:33:22;12.53;;;5.57;;
14903;SDS011;7543;53.148;8.234;2022-11-15T05:36:12;11.07;;;5.50;;
14903;SDS011;7543;53.148;8.234;2022-11-15T05:39:02;12.33;;;5.57;;
14903;SDS011;7543;53.148;8.234;2022-11-15T05:41:50;9.57;;;5.73;;
14903;SDS011;7543;53.148;8.234;2022-11-15T05:44:41;11.43;;;5.10;;
14903;SDS011;7543;53.148;8.234;2022-11-15T05:47:29;8.50;;;5.20;;
14903;SDS011;7543;53.148;8.234;2022-11-15T05:50:17;9.37;;;4.80;;
14903;SDS011;7543;53.148;8.234;2022-11-15T05:53:04;12.10;;;4.60;;
14903;SDS011;7543;53.148;8.234;2022-11-15T05:55:52;7.97;;;4.73;;
14903;SDS011;7543;53.148;8.234;2022-11-15T05:58:39;10.13;;;5.23;;
14903;SDS011;7543;53.148;8.234;2022-11-15T06:01:26;9.53;;;5.13;;
14903;SDS011;7543;53.148;8.234;2022-11-15T06:04:13;12.37;;;4.33;;
14903;SDS011;7543;53.148;8.234;2022-11-15T06:07:00;9.87;;;4.43;;
14903;SDS011;7543;53.148;8.234;2022-11-15T06:09:47;6.73;;;4.00;;
14903;SDS011;7543;53.148;8.234;2022-11-15T06:12:35;7.90;;;4.67;;
14903;SDS011;7543;53.148;8.234;2022-11-15T06:15:21;12.37;;;4.90;;
14903;SDS011;7543;53.148;8.234;2022-11-15T06:18:08;8.23;;;4.67;;
14903;SDS011;7543;53.148;8.234;2022-11-15T06:20:58;6.37;;;4.27;;
14903;SDS011;7543;53.148;8.234;2022-11-15T06:23:48;7.43;;;4.40;;
14903;SDS011;7543;53.148;8.234;2022-11-15T06:26:35;8.77;;;4.40;;
14903;SDS011;7543;53.148;8.234;2022-11-15T06:29:23;8.93;;;4.73;;
14903;SDS011;7543;53.148;8.234;2022-11-15T06:32:11;9.90;;;4.67;;
14903;SDS011;7543;53.148;8.234;2022-11-15T06:34:57;8.00;;;3.73;;
14903;SDS011;7543;53.148;8.234;2022-11-15T06:37:44;7.50;;;4.57;;
14903;SDS011;7543;53.148;8.234;2022-11-15T06:40:32;13.27;;;4.50;;
14903;SDS011;7543;53.148;8.234;2022-11-15T06:43:19;10.13;;;4.20;;
14903;SDS011;7543;53.148;8.234;2022-11-15T06:46:07;9.53;;;4.53;;
14903;SDS011;7543;53.148;8.234;2022-11-15T06:48:54;7.30;;;3.83;;
14903;SDS011;7543;53.148;8.234;2022-11-15T06:51:41;7.07;;;4.07;;
14903;SDS011;7543;53.148;8.234;2022-11-15T06:54:28;7.70;;;4.23;;
14903;SDS011;7543;53.148;8.234;2022-11-15T06:57:14;8.50;;;4.73;;
14903;SDS011;7543;53.148;8.234;2022-11-15T07:00:01;5.37;;;3.57;;
14903;SDS011;7543;53.148;8.234;2022-11-15T07:02:50;10.50;;;4.27;;
14903;SDS011;7543;53.148;8.234;2022-11-15T07:05:37;9.50;;;4.23;;
14903;SDS011;7543;53.148;8.234;2022-11-15T07:08:26;9.57;;;4.70;;
14903;SDS011;7543;53.148;8.234;2022-11-15T07:11:14;6.97;;;4.30;;
14903;SDS011;7543;53.148;8.234;2022-11-15T07:14:00;8.53;;;4.40;;
14903;SDS011;7543;53.148;8.234;2022-11-15T07:16:47;8.27;;;4.30;;
14903;SDS011;7543;53.148;8.234;2022-11-15T07:19:35;6.70;;;3.90;;
14903;SDS011;7543;53.148;8.234;2022-11-15T07:22:22;6.07;;;3.70;;
14903;SDS011;7543;53.148;8.234;2022-11-15T07:25:08;5.37;;;3.60;;
14903;SDS011;7543;53.148;8.234;2022-11-15T07:27:55;8.20;;;4.17;;
14903;SDS011;7543;53.148;8.234;2022-11-15T07:30:42;7.37;;;4.10;;
14903;SDS011;7543;53.148;8.234;2022-11-15T07:33:28;9.47;;;4.20;;
14903;SDS011;7543;53.148;8.234;2022-11-15T07:36:16;9.17;;;4.40;;
14903;SDS011;7543;53.148;8.234;2022-11-15T07:39:03;8.93;;;4.33;;
14903;SDS011;7543;53.148;8.234;2022-11-15T07:41:50;12.17;;;4.00;;
14903;SDS011;7543;53.148;8.234;2022-11-15T07:44:56;5.90;;;3.67;;
14903;SDS011;7543;53.148;8.234;2022-11-15T07:47:44;11.20;;;4.07;;
14903;SDS011;7543;53.148;8.234;2022-11-15T07:50:31;5.60;;;3.73;;
14903;SDS011;7543;53.148;8.234;2022-11-15T07:53:20;7.10;;;4.20;;
14903;SDS011;7543;53.148;8.234;2022-11-15T07:56:06;9.60;;;4.57;;
14903;SDS011;7543;53.148;8.234;2022-11-15T07:58:53;5.60;;;4.07;;
14903;SDS011;7543;53.148;8.234;2022-11-15T08:01:40;7.33;;;4.37;;
14903;SDS011;7543;53.148;8.234;2022-11-15T08:04:27;5.37;;;3.40;;
14903;SDS011;7543;53.148;8.234;2022-11-15T08:07:13;6.87;;;4.17;;
14903;SDS011;7543;53.148;8.234;2022-11-15T08:10:02;7.43;;;4.00;;
14903;SDS011;7543;53.148;8.234;2022-11-15T08:12:56;6.60;;;3.87;;
14903;SDS011;7543;53.148;8.234;2022-11-15T08:15:43;6.87;;;4.00;;
14903;SDS011;7543;53.148;8.234;2022-11-15T08:18:30;7.23;;;4.20;;
14903;SDS011;7543;53.148;8.234;2022-11-15T08:21:18;7.67;;;4.87;;
14903;SDS011;7543;53.148;8.234;2022-11-15T08:24:08;7.97;;;4.53;;
14903;SDS011;7543;53.148;8.234;2022-11-15T08:26:57;9.47;;;4.87;;
14903;SDS011;7543;53.148;8.234;2022-11-15T08:29:44;10.83;;;4.43;;
14903;SDS011;7543;53.148;8.234;2022-11-15T08:32:31;6.70;;;4.27;;
14903;SDS011;7543;53.148;8.234;2022-11-15T08:35:18;7.20;;;4.30;;
14903;SDS011;7543;53.148;8.234;2022-11-15T08:38:05;7.83;;;4.27;;
14903;SDS011;7543;53.148;8.234;2022-11-15T08:40:52;14.30;;;5.03;;
14903;SDS011;7543;53.148;8.234;2022-11-15T08:43:41;10.80;;;4.80;;
14903;SDS011;7543;53.148;8.234;2022-11-15T08:46:28;9.73;;;4.63;;
14903;SDS011;7543;53.148;8.234;2022-11-15T08:49:15;8.30;;;4.57;;
14903;SDS011;7543;53.148;8.234;2022-11-15T08:52:02;9.80;;;4.77;;
14903;SDS011;7543;53.148;8.234;2022-11-15T08:54:49;7.37;;;4.57;;
14903;SDS011;7543;53.148;8.234;2022-11-15T08:57:35;9.40;;;5.30;;
14903;SDS011;7543;53.148;8.234;2022-11-15T09:00:23;8.13;;;5.00;;
14903;SDS011;7543;53.148;8.234;2022-11-15T09:03:10;6.63;;;3.93;;
14903;SDS011;7543;53.148;8.234;2022-11-15T09:05:57;14.73;;;4.90;;
14903;SDS011;7543;53.148;8.234;2022-11-15T09:08:45;8.37;;;4.70;;
14903;SDS011;7543;53.148;8.234;2022-11-15T09:11:31;7.57;;;4.20;;
14903;SDS011;7543;53.148;8.234;2022-11-15T09:14:18;6.37;;;4.20;;
14903;SDS011;7543;53.148;8.234;2022-11-15T09:17:08;8.73;;;4.13;;
14903;SDS011;7543;53.148;8.234;2022-11-15T09:19:55;7.23;;;4.53;;
14903;SDS011;7543;53.148;8.234;2022-11-15T09:22:41;8.43;;;5.10;;
14903;SDS011;7543;53.148;8.234;2022-11-15T09:25:28;7.63;;;4.20;;
14903;SDS011;7543;53.148;8.234;2022-11-15T09:28:15;7.47;;;3.93;;
14903;SDS011;7543;53.148;8.234;2022-11-15T09:31:03;13.60;;;4.77;;
14903;SDS011;7543;53.148;8.234;2022-11-15T09:33:52;10.13;;;4.63;;
14903;SDS011;7543;53.148;8.234;2022-11-15T09:36:39;6.37;;;4.53;;
14903;SDS011;7543;53.148;8.234;2022-11-15T09:39:25;7.80;;;4.33;;
14903;SDS011;7543;53.148;8.234;2022-11-15T09:42:18;7.50;;;4.43;;
14903;SDS011;7543;53.148;8.234;2022-11-15T09:45:17;8.20;;;4.50;;
14903;SDS011;7543;53.148;8.234;2022-11-15T09:48:11;8.07;;;4.07;;
14903;SDS011;7543;53.148;8.234;2022-11-15T09:51:14;10.30;;;4.80;;
14903;SDS011;7543;53.148;8.234;2022-11-15T09:53:47;7.13;;;4.07;;
14903;SDS011;7543;53.148;8.234;2022-11-15T09:56:18;8.07;;;4.30;;
14903;SDS011;7543;53.148;8.234;2022-11-15T09:58:50;8.17;;;4.23;;
14903;SDS011;7543;53.148;8.234;2022-11-15T10:01:22;7.37;;;4.73;;
14903;SDS011;7543;53.148;8.234;2022-11-15T10:04:01;7.83;;;4.67;;
14903;SDS011;7543;53.148;8.234;2022-11-15T10:06:31;8.97;;;4.60;;
14903;SDS011;7543;53.148;8.234;2022-11-15T10:09:01;9.00;;;4.60;;
14903;SDS011;7543;53.148;8.234;2022-11-15T10:11:32;10.67;;;4.80;;
14903;SDS011;7543;53.148;8.234;2022-11-15T10:14:04;5.63;;;4.10;;
14903;SDS011;7543;53.148;8.234;2022-11-15T10:19:45;10.57;;;3.80;;
14903;SDS011;7543;53.148;8.234;2022-11-15T10:22:24;11.00;;;4.63;;
14903;SDS011;7543;53.148;8.234;2022-11-15T10:25:00;7.90;;;4.17;;
14903;SDS011;7543;53.148;8.234;2022-11-15T10:27:38;7.00;;;3.97;;
14903;SDS011;7543;53.148;8.234;2022-11-15T10:30:10;7.07;;;3.73;;
14903;SDS011;7543;53.148;8.234;2022-11-15T10:32:39;5.73;;;4.03;;
14903;SDS011;7543;53.148;8.234;2022-11-15T10:38:05;6.53;;;3.93;;
14903;SDS011;7543;53.148;8.234;2022-11-15T10:40:35;7.03;;;4.03;;
14903;SDS011;7543;53.148;8.234;2022-11-15T10:43:05;8.37;;;4.63;;
14903;SDS011;7543;53.148;8.234;2022-11-15T10:45:38;6.33;;;3.60;;
14903;SDS011;7543;53.148;8.234;2022-11-15T10:51:03;10.93;;;3.43;;
14903;SDS011;7543;53.148;8.234;2022-11-15T10:53:50;5.20;;;3.47;;
14903;SDS011;7543;53.148;8.234;2022-11-15T10:56:20;6.47;;;3.50;;
14903;SDS011;7543;53.148;8.234;2022-11-15T10:58:50;7.60;;;3.70;;
14903;SDS011;7543;53.148;8.234;2022-11-15T11:01:20;5.10;;;3.30;;
14903;SDS011;7543;53.148;8.234;2022-11-15T11:03:57;6.37;;;3.70;;
14903;SDS011;7543;53.148;8.234;2022-11-15T11:06:27;7.73;;;3.20;;
14903;SDS011;7543;53.148;8.234;2022-11-15T11:08:57;5.33;;;3.57;;
14903;SDS011;7543;53.148;8.234;2022-11-15T11:11:43;5.10;;;3.40;;
14903;SDS011;7543;53.148;8.234;2022-11-15T11:14:13;4.57;;;3.20;;
14903;SDS011;7543;53.148;8.234;2022-11-15T11:16:47;5.13;;;3.40;;
14903;SDS011;7543;53.148;8.234;2022-11-15T11:19:24;4.60;;;3.00;;
14903;SDS011;7543;53.148;8.234;2022-11-15T11:22:01;4.97;;;3.40;;
14903;SDS011;7543;53.148;8.234;2022-11-15T11:24:36;5.80;;;2.97;;
14903;SDS011;7543;53.148;8.234;2022-11-15T11:27:11;4.57;;;3.33;;
14903;SDS011;7543;53.148;8.234;2022-11-15T11:29:51;4.63;;;2.77;;
14903;SDS011;7543;53.148;8.234;2022-11-15T11:32:34;3.43;;;2.67;;
14903;SDS011;7543;53.148;8.234;2022-11-15T11:35:24;6.00;;;3.20;;
14903;SDS011;7543;53.148;8.234;2022-11-15T11:37:56;10.57;;;2.70;;
14903;SDS011;7543;53.148;8.234;2022-11-15T11:40:35;4.10;;;2.53;;
14903;SDS011;7543;53.148;8.234;2022-11-15T11:43:09;4.60;;;2.67;;
14903;SDS011;7543;53.148;8.234;2022-11-15T11:48:43;4.87;;;2.73;;
14903;SDS011;7543;53.148;8.234;2022-11-15T11:51:13;3.80;;;2.70;;
14903;SDS011;7543;53.148;8.234;2022-11-15T11:53:47;3.50;;;2.63;;
14903;SDS011;7543;53.148;8.234;2022-11-15T11:56:22;3.77;;;2.40;;
14903;SDS011;7543;53.148;8.234;2022-11-15T11:58:53;4.20;;;2.77;;
14903;SDS011;7543;53.148;8.234;2022-11-15T12:01:23;4.20;;;2.87;;
14903;SDS011;7543;53.148;8.234;2022-11-15T12:03:53;3.70;;;2.57;;
14903;SDS011;7543;53.148;8.234;2022-11-15T12:06:27;5.70;;;2.83;;
14903;SDS011;7543;53.148;8.234;2022-11-15T12:09:01;4.50;;;2.43;;
14903;SDS011;7543;53.148;8.234;2022-11-15T12:11:35;3.40;;;2.30;;
14903;SDS011;7543;53.148;8.234;2022-11-15T12:14:21;4.03;;;2.60;;
14903;SDS011;7543;53.148;8.234;2022-11-15T12:16:53;6.60;;;2.40;;
14903;SDS011;7543;53.148;8.234;2022-11-15T12:19:21;3.10;;;2.33;;
14903;SDS011;7543;53.148;8.234;2022-11-15T12:21:50;6.73;;;2.80;;
14903;SDS011;7543;53.148;8.234;2022-11-15T12:24:23;4.77;;;2.80;;
14903;SDS011;7543;53.148;8.234;2022-11-15T12:26:56;4.30;;;2.50;;
14903;SDS011;7543;53.148;8.234;2022-11-15T12:29:27;4.33;;;2.53;;
14903;SDS011;7543;53.148;8.234;2022-11-15T12:31:59;3.43;;;2.40;;
14903;SDS011;7543;53.148;8.234;2022-11-15T12:37:32;3.50;;;2.63;;
14903;SDS011;7543;53.148;8.234;2022-11-15T12:40:20;3.23;;;2.30;;
14903;SDS011;7543;53.148;8.234;2022-11-15T12:43:01;2.83;;;2.00;;
14903;SDS011;7543;53.148;8.234;2022-11-15T12:45:47;2.37;;;1.77;;
14903;SDS011;7543;53.148;8.234;2022-11-15T13:00:37;2.87;;;1.83;;
14903;SDS011;7543;53.148;8.234;2022-11-15T13:03:16;2.07;;;1.60;;
14903;SDS011;7543;53.148;8.234;2022-11-15T13:06:07;3.43;;;2.03;;
14903;SDS011;7543;53.148;8.234;2022-11-15T13:08:45;2.73;;;1.90;;
14903;SDS011;7543;53.148;8.234;2022-11-15T13:14:47;2.30;;;1.63;;
14903;SDS011;7543;53.148;8.234;2022-11-15T13:17:26;1.93;;;1.73;;
14903;SDS011;7543;53.148;8.234;2022-11-15T13:20:02;2.13;;;1.87;;
14903;SDS011;7543;53.148;8.234;2022-11-15T13:22:42;2.30;;;1.87;;
14903;SDS011;7543;53.148;8.234;2022-11-15T13:28:37;1.60;;;1.50;;
14903;SDS011;7543;53.148;8.234;2022-11-15T13:33:56;2.60;;;1.70;;
14903;SDS011;7543;53.148;8.234;2022-11-15T13:36:28;2.60;;;1.90;;
14903;SDS011;7543;53.148;8.234;2022-11-15T13:38:58;2.03;;;1.50;;
14903;SDS011;7543;53.148;8.234;2022-11-15T13:41:29;2.93;;;1.90;;
14903;SDS011;7543;53.148;8.234;2022-11-15T13:43:58;1.90;;;1.70;;
14903;SDS011;7543;53.148;8.234;2022-11-15T13:46:27;3.93;;;1.77;;
14903;SDS011;7543;53.148;8.234;2022-11-15T13:48:58;2.83;;;1.80;;
14903;SDS011;7543;53.148;8.234;2022-11-15T13:51:29;2.40;;;1.60;;
14903;SDS011;7543;53.148;8.234;2022-11-15T13:54:02;2.33;;;1.63;;
14903;SDS011;7543;53.148;8.234;2022-11-15T13:56:33;2.07;;;1.60;;
14903;SDS011;7543;53.148;8.234;2022-11-15T13:59:07;1.40;;;1.30;;
14903;SDS011;7543;53.148;8.234;2022-11-15T14:01:36;4.80;;;1.50;;
14903;SDS011;7543;53.148;8.234;2022-11-15T14:04:09;2.87;;;1.63;;
14903;SDS011;7543;53.148;8.234;2022-11-15T14:06:43;1.80;;;1.40;;
14903;SDS011;7543;53.148;8.234;2022-11-15T14:09:22;2.70;;;1.50;;
14903;SDS011;7543;53.148;8.234;2022-11-15T14:11:56;3.13;;;1.60;;
14903;SDS011;7543;53.148;8.234;2022-11-15T14:14:25;2.23;;;1.40;;
14903;SDS011;7543;53.148;8.234;2022-11-15T14:16:55;5.00;;;1.40;;
14903;SDS011;7543;53.148;8.234;2022-11-15T14:19:36;3.10;;;1.30;;
14903;SDS011;7543;53.148;8.234;2022-11-15T14:22:09;1.77;;;1.30;;
14903;SDS011;7543;53.148;8.234;2022-11-15T14:24:43;2.40;;;1.33;;
14903;SDS011;7543;53.148;8.234;2022-11-15T14:27:16;2.93;;;1.23;;
14903;SDS011;7543;53.148;8.234;2022-11-15T14:29:48;5.10;;;1.63;;
14903;SDS011;7543;53.148;8.234;2022-11-15T14:32:17;1.77;;;1.40;;
14903;SDS011;7543;53.148;8.234;2022-11-15T14:34:49;1.80;;;1.30;;
14903;SDS011;7543;53.148;8.234;2022-11-15T14:37:23;5.03;;;1.53;;
14903;SDS011;7543;53.148;8.234;2022-11-15T14:39:52;1.73;;;1.20;;
14903;SDS011;7543;53.148;8.234;2022-11-15T14:42:23;5.33;;;1.97;;
14903;SDS011;7543;53.148;8.234;2022-11-15T14:44:52;2.60;;;1.40;;
14903;SDS011;7543;53.148;8.234;2022-11-15T14:47:20;2.70;;;1.47;;
14903;SDS011;7543;53.148;8.234;2022-11-15T14:49:50;2.97;;;1.40;;
14903;SDS011;7543;53.148;8.234;2022-11-15T14:52:23;2.27;;;1.37;;
14903;SDS011;7543;53.148;8.234;2022-11-15T14:54:54;3.67;;;1.30;;
14903;SDS011;7543;53.148;8.234;2022-11-15T14:57:22;2.57;;;1.23;;
14903;SDS011;7543;53.148;8.234;2022-11-15T14:59:50;3.07;;;1.10;;
14903;SDS011;7543;53.148;8.234;2022-11-15T15:02:19;1.80;;;1.10;;
14903;SDS011;7543;53.148;8.234;2022-11-15T15:04:50;1.60;;;1.00;;
14903;SDS011;7543;53.148;8.234;2022-11-15T15:07:19;3.47;;;1.60;;
14903;SDS011;7543;53.148;8.234;2022-11-15T15:09:47;2.07;;;1.30;;
14903;SDS011;7543;53.148;8.234;2022-11-15T15:12:16;3.77;;;1.60;;
14903;SDS011;7543;53.148;8.234;2022-11-15T15:14:46;2.67;;;1.70;;
14903;SDS011;7543;53.148;8.234;2022-11-15T15:17:15;3.70;;;1.37;;
14903;SDS011;7543;53.148;8.234;2022-11-15T15:19:44;1.43;;;1.17;;
14903;SDS011;7543;53.148;8.234;2022-11-15T15:22:15;2.97;;;1.40;;
14903;SDS011;7543;53.148;8.234;2022-11-15T15:24:44;1.70;;;1.20;;
14903;SDS011;7543;53.148;8.234;2022-11-15T15:27:13;1.13;;;1.03;;
14903;SDS011;7543;53.148;8.234;2022-11-15T15:29:41;1.63;;;1.30;;
14903;SDS011;7543;53.148;8.234;2022-11-15T15:32:10;3.67;;;1.57;;
14903;SDS011;7543;53.148;8.234;2022-11-15T15:34:40;1.70;;;1.30;;
14903;SDS011;7543;53.148;8.234;2022-11-15T15:37:21;3.80;;;1.10;;
14903;SDS011;7543;53.148;8.234;2022-11-15T15:39:50;2.67;;;1.30;;
14903;SDS011;7543;53.148;8.234;2022-11-15T15:42:19;1.20;;;1.00;;
14903;SDS011;7543;53.148;8.234;2022-11-15T15:44:47;4.73;;;1.50;;
14903;SDS011;7543;53.148;8.234;2022-11-15T15:47:16;4.30;;;1.40;;
14903;SDS011;7543;53.148;8.234;2022-11-15T15:49:46;1.90;;;1.20;;
14903;SDS011;7543;53.148;8.234;2022-11-15T15:52:15;3.30;;;1.83;;
14903;SDS011;7543;53.148;8.234;2022-11-15T15:54:45;2.57;;;1.70;;
14903;SDS011;7543;53.148;8.234;2022-11-15T15:57:13;4.43;;;2.10;;
14903;SDS011;7543;53.148;8.234;2022-11-15T15:59:41;5.47;;;2.23;;
14903;SDS011;7543;53.148;8.234;2022-11-15T16:02:10;5.80;;;2.70;;
14903;SDS011;7543;53.148;8.234;2022-11-15T16:04:39;4.73;;;2.73;;
14903;SDS011;7543;53.148;8.234;2022-11-15T16:07:08;3.40;;;2.10;;
14903;SDS011;7543;53.148;8.234;2022-11-15T16:09:44;4.13;;;2.37;;
14903;SDS011;7543;53.148;8.234;2022-11-15T16:12:28;4.93;;;2.63;;
14903;SDS011;7543;53.148;8.234;2022-11-15T16:14:57;4.07;;;1.87;;
14903;SDS011;7543;53.148;8.234;2022-11-15T16:17:26;2.80;;;1.80;;
14903;SDS011;7543;53.148;8.234;2022-11-15T16:19:55;2.37;;;1.90;;
14903;SDS011;7543;53.148;8.234;2022-11-15T16:22:24;3.40;;;2.10;;
14903;SDS011;7543;53.148;8.234;2022-11-15T16:24:53;3.83;;;2.20;;
14903;SDS011;7543;53.148;8.234;2022-11-15T16:27:21;2.93;;;1.87;;
14903;SDS011;7543;53.148;8.234;2022-11-15T16:29:50;4.67;;;2.33;;
14903;SDS011;7543;53.148;8.234;2022-11-15T16:32:18;3.07;;;2.17;;
14903;SDS011;7543;53.148;8.234;2022-11-15T16:34:46;3.50;;;1.70;;
14903;SDS011;7543;53.148;8.234;2022-11-15T16:37:19;3.47;;;2.10;;
14903;SDS011;7543;53.148;8.234;2022-11-15T16:39:50;2.50;;;1.50;;
14903;SDS011;7543;53.148;8.234;2022-11-15T16:42:19;1.97;;;1.50;;
14903;SDS011;7543;53.148;8.234;2022-11-15T16:44:47;3.93;;;1.60;;
14903;SDS011;7543;53.148;8.234;2022-11-15T16:47:16;3.40;;;1.80;;
14903;SDS011;7543;53.148;8.234;2022-11-15T16:49:45;2.83;;;1.80;;
14903;SDS011;7543;53.148;8.234;2022-11-15T16:52:14;3.67;;;1.80;;
14903;SDS011;7543;53.148;8.234;2022-11-15T16:54:42;2.80;;;2.00;;
14903;SDS011;7543;53.148;8.234;2022-11-15T16:57:10;2.77;;;2.00;;
14903;SDS011;7543;53.148;8.234;2022-11-15T16:59:40;8.13;;;3.90;;
14903;SDS011;7543;53.148;8.234;2022-11-15T17:02:09;19.87;;;8.07;;